Airfield :
LOGIN :

Register | Disclaimer

   EN    FR    IT 

 










Legend :    VFR   Marginal VFR   IFR   Intensive IFR   Very Intensive IFR
Visi :
Ceiling :
>= 8 km
>= 3000ft
5 to 8 km
1000 to 3000 ft
1500m to 5 km
500 to 1000 ft
800 to 1500m
200 to 500 ft
< 800m
< 200 ft
Symbols :   Thunderstorms  Fog  Heavy snow  Heavy precipitations  Wind > 20 kt
SIGMETs :     Misc.  Thunderstorms  Icing  Turbulence  Mountain Waves  Volcanic Ashes






- Airport Elevation : 39 ft


ETNH - Hohn AB

CURRENT METAR :
  • 291120Z 22006KT 7000 -DZRA BKN008 10/09 Q1000 GRN BLU TEMPO YLO

EXPIRED METARs :
  • 291020Z 21005KT 8000 -RADZ SCT005 BKN009 10/09 Q1000 RERA GRN BLU TEMPO GRN
  • 290953Z 23006KT 7000 RADZ BKN009 BKN035 10/09 Q1000 GRN BLU TEMPO GRN
  • 290920Z 23006KT 8000 -RADZ FEW030 BKN045 09/09 Q0999 RERA BLU BLU TEMPO GRN
  • 290820Z 20003KT 8000 RA SCT030 BKN040 09/09 Q0999 BLU BLU TEMPO GRN

TAF TAF ETNH
Valid from the 29 at 11:00 until the 29 at 20:00 UTC


291028Z 2911/2920 23010KT 8000 -RA SCT010 BKN025
TEMPO 2911/2920 28010G20KT 4000 SHRA BKN005 BKN015TCU BY ETGL



MET'MAP, your aeronautical weather chart ! - Copyright ORBIFLY December 2007 - Disclaimer

ORBIFLY MET'MAP TEAM :

Programming & Development : Alexandra Zaïnal
Original concept : Baudouin d'Aumeries
Technical & hardware support : Manuel Goepfert
Assistance : Marc-Olivier Méhu




SOURCES & CREDITS :

   NOAA